createdAt,value
2023-05-06T00:07:42.479Z,8.40
2023-05-06T00:17:42.100Z,8.50
2023-05-06T00:27:41.911Z,7.90
2023-05-06T00:37:41.468Z,9.00
2023-05-06T00:47:41.597Z,8.60
2023-05-06T00:57:41.622Z,8.10
2023-05-06T01:07:41.714Z,8.30
2023-05-06T01:17:41.977Z,7.50
2023-05-06T01:27:42.083Z,6.90
2023-05-06T01:37:41.966Z,7.10
2023-05-06T01:47:42.135Z,6.50
2023-05-06T01:57:42.259Z,6.00
2023-05-06T02:07:42.138Z,5.60
2023-05-06T02:17:42.199Z,5.40
2023-05-06T02:27:42.370Z,4.90
2023-05-06T02:37:42.163Z,4.70
2023-05-06T02:47:42.165Z,4.80
2023-05-06T02:57:42.111Z,4.40
2023-05-06T03:07:42.237Z,3.90
2023-05-06T03:17:42.154Z,4.10
2023-05-06T03:27:42.373Z,4.00
2023-05-06T03:37:41.788Z,3.90
2023-05-06T03:47:41.815Z,4.00
2023-05-06T03:57:41.931Z,4.60
2023-05-06T04:07:41.450Z,4.60
2023-05-06T04:17:41.236Z,4.00
2023-05-06T04:27:41.106Z,4.20
2023-05-06T04:37:40.924Z,4.40
2023-05-06T04:47:40.944Z,3.50
2023-05-06T04:57:40.558Z,3.60
2023-05-06T05:07:40.615Z,4.10
2023-05-06T05:17:40.247Z,3.90
2023-05-06T05:27:40.419Z,4.00
2023-05-06T05:37:40.146Z,4.10
2023-05-06T05:47:40.015Z,4.90
2023-05-06T05:57:39.985Z,4.40
2023-05-06T06:07:40.261Z,4.80
2023-05-06T06:17:40.181Z,5.30
2023-05-06T06:27:40.607Z,5.00
2023-05-06T06:37:45.430Z,6.20
2023-05-06T06:47:45.283Z,6.60
2023-05-06T06:57:44.854Z,6.70
2023-05-06T07:07:44.509Z,6.00
2023-05-06T07:17:43.986Z,6.60
2023-05-06T07:27:43.653Z,4.80
2023-05-06T07:37:44.738Z,5.10
2023-05-06T07:47:43.082Z,4.80
2023-05-06T07:57:42.616Z,4.30
2023-05-06T08:07:42.552Z,4.80
2023-05-06T08:17:47.403Z,4.20
2023-05-06T08:27:47.126Z,3.90
2023-05-06T08:37:46.624Z,4.40
2023-05-06T08:47:46.291Z,4.10
2023-05-06T08:57:45.852Z,3.90
2023-05-06T09:07:45.589Z,3.70
2023-05-06T09:17:45.159Z,3.20
2023-05-06T09:27:45.101Z,3.50
2023-05-06T09:37:50.439Z,3.60
2023-05-06T09:47:49.907Z,4.20
2023-05-06T09:57:49.485Z,3.80
2023-05-06T10:07:49.151Z,3.50
2023-05-06T10:17:48.764Z,3.60
2023-05-06T10:27:48.436Z,3.80
2023-05-06T10:37:53.542Z,3.60
2023-05-06T10:47:53.584Z,3.30
2023-05-06T10:57:52.758Z,3.80
2023-05-06T11:07:54.094Z,3.40
2023-05-06T11:17:53.345Z,3.50
2023-05-06T11:27:57.197Z,3.50
2023-05-06T11:37:56.816Z,3.60
2023-05-06T11:47:56.474Z,3.60
2023-05-06T11:57:56.063Z,3.50
2023-05-06T12:07:55.893Z,3.60
2023-05-06T12:18:01.091Z,4.30
2023-05-06T12:28:00.648Z,3.60
2023-05-06T12:38:00.893Z,3.60
2023-05-06T12:48:00.182Z,3.40
2023-05-06T12:58:05.204Z,3.60
2023-05-06T13:08:04.687Z,3.50
2023-05-06T13:18:04.517Z,3.50
2023-05-06T13:28:03.985Z,3.50
2023-05-06T13:38:03.805Z,3.80
2023-05-06T13:48:08.953Z,3.40
2023-05-06T13:58:08.701Z,3.40
2023-05-06T14:08:08.681Z,3.40
2023-05-06T14:18:08.485Z,3.60
2023-05-06T14:28:13.052Z,3.50
2023-05-06T14:38:12.602Z,3.60
2023-05-06T14:48:12.272Z,3.30
2023-05-06T14:58:11.919Z,3.60
2023-05-06T15:08:17.083Z,3.60
2023-05-06T15:18:16.705Z,4.20
2023-05-06T15:28:16.772Z,3.90
2023-05-06T15:38:15.939Z,3.90
2023-05-06T15:48:15.816Z,3.80
2023-05-06T15:58:20.769Z,3.70
2023-05-06T16:08:20.483Z,3.80
2023-05-06T16:18:19.973Z,3.80
2023-05-06T16:28:19.827Z,3.80
2023-05-06T16:38:21.159Z,3.90
2023-05-06T16:48:18.973Z,4.00
2023-05-06T16:58:18.790Z,4.30
2023-05-06T17:08:24.425Z,3.90
2023-05-06T17:18:23.692Z,3.80
2023-05-06T17:28:23.244Z,3.50
2023-05-06T17:38:22.824Z,4.20
2023-05-06T17:48:24.768Z,4.20
2023-05-06T17:58:22.093Z,3.80
2023-05-06T18:08:27.426Z,4.20
2023-05-06T18:18:27.050Z,4.10
2023-05-06T18:28:26.551Z,4.30
2023-05-06T18:38:26.184Z,4.00
2023-05-06T18:48:25.991Z,3.70
2023-05-06T18:58:25.442Z,5.50
2023-05-06T19:08:30.786Z,4.40
2023-05-06T19:18:30.209Z,4.30
2023-05-06T19:28:30.226Z,4.30
2023-05-06T19:38:29.643Z,4.00
2023-05-06T19:48:29.125Z,4.50
2023-05-06T19:58:28.907Z,4.20
2023-05-06T20:08:28.576Z,4.30
2023-05-06T20:18:33.572Z,4.50
2023-05-06T20:28:33.173Z,3.90
2023-05-06T20:38:32.869Z,4.40
2023-05-06T20:48:32.441Z,4.40
2023-05-06T20:58:32.088Z,4.40
2023-05-06T21:08:31.678Z,4.50
2023-05-06T21:18:31.515Z,4.70
2023-05-06T21:28:36.591Z,5.30
2023-05-06T21:38:36.145Z,4.60
2023-05-06T21:48:35.741Z,4.20
2023-05-06T21:58:35.721Z,4.80
2023-05-06T22:08:37.024Z,4.60
2023-05-06T22:18:34.657Z,4.70
2023-05-06T22:28:34.286Z,4.30
2023-05-06T22:38:34.409Z,5.10
2023-05-06T22:48:34.134Z,5.30
2023-05-06T22:58:39.167Z,5.30
2023-05-06T23:08:38.962Z,4.90
2023-05-06T23:18:38.423Z,4.40
2023-05-06T23:28:38.212Z,4.40
2023-05-06T23:38:37.702Z,4.30
2023-05-06T23:48:37.512Z,4.30
2023-05-06T23:58:36.955Z,4.30
